sensor_id;sensor_type;location;lat;lon;timestamp;pressure;altitude;pressure_sealevel;temperature;humidity
38253;BME280;24785;52.372;20.672;2022-08-19T00:03:30;100306.72;;;18.03;100.00
38253;BME280;24785;52.372;20.672;2022-08-19T00:13:31;100296.84;;;17.98;100.00
38253;BME280;24785;52.372;20.672;2022-08-19T00:23:32;100283.97;;;17.86;100.00
38253;BME280;24785;52.372;20.672;2022-08-19T00:33:35;100292.41;;;17.85;100.00
38253;BME280;24785;52.372;20.672;2022-08-19T00:43:37;100311.13;;;17.60;100.00
38253;BME280;24785;52.372;20.672;2022-08-19T00:53:39;100282.59;;;17.63;100.00
38253;BME280;24785;52.372;20.672;2022-08-19T01:03:40;100287.88;;;17.51;100.00
38253;BME280;24785;52.372;20.672;2022-08-19T01:13:40;100282.63;;;17.37;100.00
38253;BME280;24785;52.372;20.672;2022-08-19T01:23:43;100282.94;;;17.53;100.00
38253;BME280;24785;52.372;20.672;2022-08-19T01:33:44;100300.16;;;17.40;100.00
38253;BME280;24785;52.372;20.672;2022-08-19T01:43:45;100275.63;;;17.36;100.00
38253;BME280;24785;52.372;20.672;2022-08-19T01:53:47;100239.78;;;17.39;100.00
38253;BME280;24785;52.372;20.672;2022-08-19T02:03:49;100217.69;;;17.75;100.00
38253;BME280;24785;52.372;20.672;2022-08-19T02:13:49;100200.84;;;17.99;100.00
38253;BME280;24785;52.372;20.672;2022-08-19T02:23:50;100212.41;;;18.08;100.00
38253;BME280;24785;52.372;20.672;2022-08-19T02:33:52;100222.28;;;18.13;100.00
38253;BME280;24785;52.372;20.672;2022-08-19T02:43:54;100223.22;;;18.17;100.00
38253;BME280;24785;52.372;20.672;2022-08-19T02:53:56;100232.53;;;18.07;100.00
38253;BME280;24785;52.372;20.672;2022-08-19T03:03:59;100233.97;;;18.05;100.00
38253;BME280;24785;52.372;20.672;2022-08-19T03:14:01;100236.03;;;18.08;100.00
38253;BME280;24785;52.372;20.672;2022-08-19T03:24:05;100259.31;;;18.09;100.00
38253;BME280;24785;52.372;20.672;2022-08-19T03:34:07;100279.09;;;18.09;100.00
38253;BME280;24785;52.372;20.672;2022-08-19T03:44:08;100288.81;;;18.10;100.00
38253;BME280;24785;52.372;20.672;2022-08-19T03:54:12;100307.44;;;18.41;100.00
38253;BME280;24785;52.372;20.672;2022-08-19T04:04:13;100323.28;;;18.69;100.00
38253;BME280;24785;52.372;20.672;2022-08-19T04:14:17;100328.88;;;18.93;100.00
38253;BME280;24785;52.372;20.672;2022-08-19T04:24:19;100326.94;;;19.14;100.00
38253;BME280;24785;52.372;20.672;2022-08-19T04:34:22;100336.41;;;19.62;100.00
38253;BME280;24785;52.372;20.672;2022-08-19T04:44:23;100374.63;;;20.60;100.00
38253;BME280;24785;52.372;20.672;2022-08-19T04:54:25;100357.41;;;21.92;100.00
38253;BME280;24785;52.372;20.672;2022-08-19T05:04:26;100352.09;;;21.40;100.00
38253;BME280;24785;52.372;20.672;2022-08-19T05:14:32;100365.16;;;21.62;100.00
38253;BME280;24785;52.372;20.672;2022-08-19T05:24:32;100380.09;;;22.59;100.00
38253;BME280;24785;52.372;20.672;2022-08-19T05:34:34;100370.81;;;23.34;100.00
38253;BME280;24785;52.372;20.672;2022-08-19T05:44:39;100402.44;;;23.93;94.48
38253;BME280;24785;52.372;20.672;2022-08-19T05:54:40;100400.75;;;24.07;92.23
38253;BME280;24785;52.372;20.672;2022-08-19T06:04:41;100384.47;;;24.14;90.80
38253;BME280;24785;52.372;20.672;2022-08-19T06:14:45;100390.88;;;24.71;87.18
38253;BME280;24785;52.372;20.672;2022-08-19T06:24:46;100391.44;;;25.44;81.69
38253;BME280;24785;52.372;20.672;2022-08-19T06:34:47;100400.06;;;25.76;79.49
38253;BME280;24785;52.372;20.672;2022-08-19T06:44:48;100388.16;;;26.02;77.41
38253;BME280;24785;52.372;20.672;2022-08-19T06:54:49;100385.97;;;26.22;76.03
38253;BME280;24785;52.372;20.672;2022-08-19T07:04:50;100393.25;;;26.44;74.41
38253;BME280;24785;52.372;20.672;2022-08-19T07:14:51;100389.47;;;26.63;71.70
38253;BME280;24785;52.372;20.672;2022-08-19T07:24:53;100382.53;;;26.87;71.92
38253;BME280;24785;52.372;20.672;2022-08-19T07:34:55;100370.53;;;27.20;68.76
38253;BME280;24785;52.372;20.672;2022-08-19T07:44:56;100371.03;;;27.50;66.40
38253;BME280;24785;52.372;20.672;2022-08-19T07:54:56;100385.66;;;27.79;65.63
38253;BME280;24785;52.372;20.672;2022-08-19T08:04:57;100366.03;;;28.13;64.67
38253;BME280;24785;52.372;20.672;2022-08-19T08:15:17;100369.19;;;28.36;62.86
38253;BME280;24785;52.372;20.672;2022-08-19T08:25:22;100380.63;;;28.45;62.19
38253;BME280;24785;52.372;20.672;2022-08-19T08:35:23;100384.94;;;28.29;62.54
38253;BME280;24785;52.372;20.672;2022-08-19T08:45:25;100389.28;;;28.47;62.13
38253;BME280;24785;52.372;20.672;2022-08-19T08:55:28;100394.81;;;28.44;61.86
38253;BME280;24785;52.372;20.672;2022-08-19T09:05:39;100398.66;;;28.82;61.40
38253;BME280;24785;52.372;20.672;2022-08-19T09:15:56;100409.28;;;29.08;58.89
38253;BME280;24785;52.372;20.672;2022-08-19T09:25:58;100411.94;;;29.37;58.48
38253;BME280;24785;52.372;20.672;2022-08-19T09:36:07;100413.13;;;29.36;58.30
38253;BME280;24785;52.372;20.672;2022-08-19T09:46:08;100419.84;;;29.24;58.96
38253;BME280;24785;52.372;20.672;2022-08-19T09:56:11;100398.44;;;29.57;59.52
38253;BME280;24785;52.372;20.672;2022-08-19T10:06:12;100390.91;;;29.64;58.74
38253;BME280;24785;52.372;20.672;2022-08-19T10:16:19;100383.34;;;29.72;57.67
38253;BME280;24785;52.372;20.672;2022-08-19T10:26:32;100370.72;;;30.26;56.58
38253;BME280;24785;52.372;20.672;2022-08-19T10:36:35;100370.50;;;30.92;54.42
38253;BME280;24785;52.372;20.672;2022-08-19T10:46:39;100366.06;;;30.64;52.74
38253;BME280;24785;52.372;20.672;2022-08-19T10:56:42;100354.13;;;31.05;52.89
38253;BME280;24785;52.372;20.672;2022-08-19T11:06:51;100347.53;;;30.58;51.50
38253;BME280;24785;52.372;20.672;2022-08-19T11:16:53;100335.00;;;31.48;49.89
38253;BME280;24785;52.372;20.672;2022-08-19T11:27:05;100319.75;;;31.37;50.02
38253;BME280;24785;52.372;20.672;2022-08-19T11:37:06;100311.34;;;31.44;51.71
38253;BME280;24785;52.372;20.672;2022-08-19T11:47:09;100291.31;;;31.59;48.98
38253;BME280;24785;52.372;20.672;2022-08-19T11:57:09;100278.56;;;32.12;48.14
38253;BME280;24785;52.372;20.672;2022-08-19T12:07:10;100267.13;;;32.34;47.26
38253;BME280;24785;52.372;20.672;2022-08-19T12:17:12;100269.97;;;31.83;48.79
38253;BME280;24785;52.372;20.672;2022-08-19T12:27:13;100264.69;;;32.75;47.53
38253;BME280;24785;52.372;20.672;2022-08-19T12:37:14;100247.50;;;32.84;46.25
38253;BME280;24785;52.372;20.672;2022-08-19T12:47:17;100238.03;;;32.81;47.00
38253;BME280;24785;52.372;20.672;2022-08-19T12:57:19;100242.47;;;32.16;48.58
38253;BME280;24785;52.372;20.672;2022-08-19T13:07:20;100233.13;;;32.49;46.45
38253;BME280;24785;52.372;20.672;2022-08-19T13:17:21;100226.22;;;32.18;47.65
38253;BME280;24785;52.372;20.672;2022-08-19T13:27:23;100237.09;;;32.88;46.13
38253;BME280;24785;52.372;20.672;2022-08-19T13:37:24;100240.66;;;32.69;46.94
38253;BME280;24785;52.372;20.672;2022-08-19T13:47:46;100244.06;;;32.76;47.38
38253;BME280;24785;52.372;20.672;2022-08-19T13:57:56;100222.59;;;32.80;45.51
38253;BME280;24785;52.372;20.672;2022-08-19T14:07:58;100237.78;;;33.12;45.27
38253;BME280;24785;52.372;20.672;2022-08-19T14:17:59;100235.19;;;32.85;44.90
38253;BME280;24785;52.372;20.672;2022-08-19T14:28:00;100242.50;;;32.75;45.04
38253;BME280;24785;52.372;20.672;2022-08-19T14:38:04;100241.38;;;32.53;47.05
38253;BME280;24785;52.372;20.672;2022-08-19T14:48:06;100229.78;;;32.38;46.64
38253;BME280;24785;52.372;20.672;2022-08-19T14:58:07;100239.31;;;32.14;48.74
38253;BME280;24785;52.372;20.672;2022-08-19T15:08:09;100236.03;;;31.99;47.91
38253;BME280;24785;52.372;20.672;2022-08-19T15:18:10;100219.63;;;31.88;45.17
38253;BME280;24785;52.372;20.672;2022-08-19T15:28:11;100221.31;;;32.65;45.32
38253;BME280;24785;52.372;20.672;2022-08-19T15:38:13;100223.72;;;32.23;46.15
38253;BME280;24785;52.372;20.672;2022-08-19T15:48:14;100227.81;;;31.22;48.23
38253;BME280;24785;52.372;20.672;2022-08-19T15:58:15;100214.66;;;32.43;44.76
38253;BME280;24785;52.372;20.672;2022-08-19T16:08:34;100209.03;;;32.66;43.49
38253;BME280;24785;52.372;20.672;2022-08-19T16:18:35;100203.97;;;32.41;44.06
38253;BME280;24785;52.372;20.672;2022-08-19T16:28:38;100205.69;;;31.22;45.05
38253;BME280;24785;52.372;20.672;2022-08-19T16:38:39;100217.31;;;30.11;48.32
38253;BME280;24785;52.372;20.672;2022-08-19T16:48:39;100211.63;;;29.32;50.57
38253;BME280;24785;52.372;20.672;2022-08-19T16:58:42;100222.03;;;29.10;50.28
38253;BME280;24785;52.372;20.672;2022-08-19T17:08:43;100230.97;;;28.52;52.37
38253;BME280;24785;52.372;20.672;2022-08-19T17:18:44;100220.88;;;27.92;54.20
38253;BME280;24785;52.372;20.672;2022-08-19T17:28:49;100246.81;;;27.45;55.57
38253;BME280;24785;52.372;20.672;2022-08-19T17:38:52;100253.81;;;27.17;55.91
38253;BME280;24785;52.372;20.672;2022-08-19T17:48:56;100277.63;;;26.78;56.95
38253;BME280;24785;52.372;20.672;2022-08-19T17:58:57;100299.03;;;26.44;58.70
38253;BME280;24785;52.372;20.672;2022-08-19T18:08:58;100317.38;;;26.29;58.48
38253;BME280;24785;52.372;20.672;2022-08-19T18:18:59;100323.16;;;26.17;58.69
38253;BME280;24785;52.372;20.672;2022-08-19T18:29:00;100321.53;;;26.09;59.74
38253;BME280;24785;52.372;20.672;2022-08-19T18:39:02;100301.78;;;25.92;60.61
38253;BME280;24785;52.372;20.672;2022-08-19T18:49:25;100297.75;;;25.79;61.91
38253;BME280;24785;52.372;20.672;2022-08-19T18:59:27;100297.25;;;25.66;62.88
38253;BME280;24785;52.372;20.672;2022-08-19T19:09:28;100294.56;;;25.36;64.22
38253;BME280;24785;52.372;20.672;2022-08-19T19:19:30;100296.47;;;25.29;64.57
38253;BME280;24785;52.372;20.672;2022-08-19T19:29:32;100318.09;;;25.04;65.71
38253;BME280;24785;52.372;20.672;2022-08-19T19:39:36;100312.84;;;24.35;70.43
38253;BME280;24785;52.372;20.672;2022-08-19T19:49:36;100327.47;;;23.97;73.61
38253;BME280;24785;52.372;20.672;2022-08-19T19:59:40;100317.84;;;23.61;76.79
38253;BME280;24785;52.372;20.672;2022-08-19T20:09:42;100321.09;;;23.67;75.38
38253;BME280;24785;52.372;20.672;2022-08-19T20:19:43;100335.44;;;23.83;74.06
38253;BME280;24785;52.372;20.672;2022-08-19T20:29:44;100344.56;;;23.91;72.27
38253;BME280;24785;52.372;20.672;2022-08-19T20:39:45;100355.16;;;24.15;69.18
38253;BME280;24785;52.372;20.672;2022-08-19T20:49:46;100344.19;;;24.15;68.33
38253;BME280;24785;52.372;20.672;2022-08-19T20:59:46;100345.22;;;24.30;67.54
38253;BME280;24785;52.372;20.672;2022-08-19T21:09:47;100345.53;;;24.51;65.49
38253;BME280;24785;52.372;20.672;2022-08-19T21:19:48;100360.56;;;24.61;65.49
38253;BME280;24785;52.372;20.672;2022-08-19T21:29:49;100349.81;;;24.75;63.89
38253;BME280;24785;52.372;20.672;2022-08-19T21:39:52;100334.16;;;24.75;63.84
38253;BME280;24785;52.372;20.672;2022-08-19T21:49:53;100333.78;;;24.77;63.78
38253;BME280;24785;52.372;20.672;2022-08-19T21:59:54;100343.13;;;24.72;63.50
38253;BME280;24785;52.372;20.672;2022-08-19T22:09:55;100344.75;;;24.77;63.28
38253;BME280;24785;52.372;20.672;2022-08-19T22:19:56;100353.28;;;24.72;63.67
38253;BME280;24785;52.372;20.672;2022-08-19T22:29:57;100406.94;;;24.73;63.92
38253;BME280;24785;52.372;20.672;2022-08-19T22:39:58;100453.47;;;24.96;63.95
38253;BME280;24785;52.372;20.672;2022-08-19T22:50:01;100478.53;;;24.71;65.29
38253;BME280;24785;52.372;20.672;2022-08-19T23:00:05;100438.25;;;24.26;67.69
38253;BME280;24785;52.372;20.672;2022-08-19T23:10:09;100449.34;;;23.91;70.79
38253;BME280;24785;52.372;20.672;2022-08-19T23:20:13;100454.56;;;24.65;65.76
38253;BME280;24785;52.372;20.672;2022-08-19T23:30:14;100445.38;;;23.89;69.89
38253;BME280;24785;52.372;20.672;2022-08-19T23:40:28;100449.56;;;23.63;71.63
38253;BME280;24785;52.372;20.672;2022-08-19T23:50:28;100453.75;;;22.87;76.42
